Pagina principală
METAR-TAF:

METAR-TAF

Aeroporturi :

Imperial Municipal Airport

Imperial, Nebraska, Statele Unite ale Americii

Latitudine: 40-31N, longitudine: 101-37W, elevație: 997 m

Observații meteo curente

Raportul a fost făcut în urmă cu 1 oră și 14 de minute, la 12:53 UTC
Vânt 4 kt de la Sud
Temperatură 19°C
Umiditate 78%
Presiune 1011 hPa
Vizibilitate: 16.1 km
Cer senin

METAR: KIML 151253Z AUTO 18004KT 10SM CLR 19/15 A2986 RMK AO2 SLP083 T01890150

Ora: 08:07 (14:07 UTC)


TAF: lipsă

Observații și prognoze meteo pentru peste 4.000 de aeroporturi (rapoarte METAR și TAF).

Stațiile disponibile sunt reprezentate pe hartă prin puncte galbene și roșii.

Țineți indicatorul mouse-ului pe punctul dorit pentru a vedea denumirea stației.

Apoi, faceți clic pentru a vedea observațiile și prognozele meteorologice.

Pentru a schimba harta: Pentru mărire, faceți clic pe butoanele verzi cu cruce neagră; pentru micșorare, pe butonul verde cu o liniuță; pentru hărți învecinate, pe săgețile verzi.


METAR-TAF: